Airport ICAO


07:28 UTC

9°C

Overcast


An affordable passengers' Moving Map for your aircraft. Made for the iPad and the iPhone
More information here

LFLB Aix Les Bains


Chambery FRANCE   IFR CAT I


METAR LFLB 200700Z AUTO 08003KT 9999 OVC006 09/08 Q1023 TEMPO 0400 FG BECMG BKN012 0h28min

TAF LFLB 200500Z 2006/2106 VRB02KT 9999 BKN012 PROB40 TEMPO 2006/2008 0400 FG SCT002 BECMG 2009/2011 CAVOK TEMPO 2011/2018 36012KT PROB30 TEMPO 2102/2106 0400 FG VV/// 2h28min





NOTAMS

OPEN